McCook, NE

4:00 PM CDT on July 28, 2016 (GMT -0500)
KNEMCCOO2 | | Change Station

Elev 2609 ft 40.21 °N, 100.64 °W | Updated 2 minutes ago

Rain
Rain
64.4 °F
Feels Like 64.4 °F
N
0.0
Wind Variable Wind from NNE
Gusts 0.0 mph

Today
High -- | Low -- °F
--% Chance of Precip.
Yesterday
High -- | Low -- °F
Precip. -- in
Pressure 30.05 in
Visibility 10.0 miles
Clouds Few 6000 ft
Scattered Clouds 10000 ft
Scattered Clouds 12000 ft
Dew Point 63 °F
Humidity 95%
Rainfall 0.92 in
Snow Depth Not available.
6:37 AM 9:00 PM
Waning Crescent, 29% visible
METAR KMCK 282053Z AUTO 12006KT 10SM VCTS FEW060 SCT100 SCT120 18/16 A3010 RMK AO2 PK WND 04036/2023 LTG DSNT NE-S RAB02B24E37 TSB1957E51 SLP176 P0089 60089 T01830161 $
Pressure 30.05 in
Visibility 10.0 miles
Clouds Few 6000 ft
Scattered Clouds 10000 ft
Scattered Clouds 12000 ft
Dew Point 63 °F
Humidity 95%
Rainfall 0.92 in
Snow Depth Not available.
6:37 AM 9:00 PM
Waning Crescent, 29% visible
METAR KMCK 282053Z AUTO 12006KT 10SM VCTS FEW060 SCT100 SCT120 18/16 A3010 RMK AO2 PK WND 04036/2023 LTG DSNT NE-S RAB02B24E37 TSB1957E51 SLP176 P0089 60089 T01830161 $

10-Day Weather Forecast

Almanac

Astronomy

Jul. 28, 2016 Rise Set
Actual Time
Civil Twilight
Nautical Twilight
Astronomical Twilight
Moon
Length of Visible Light
Length of Day
Tomorrow will be .
, % of the Moon is Illuminated

Today's Extremes

State Highs State Lows

Community

WunderPhotos

Upload Photos

1,928,206 photos uploaded!

WunderBlog® & News

Nearby

Air Quality

  Air Quality AQ Index Pollutant
Not available.

Snow Depth

Station Depth Elevation

Earthquake Activity

City Distance Mag. Time & Date
Minimum magnitude displayed is 2.5.

Coastal Water Temperatures

Place Temperature

Stations

Nearby Weather Stations

Station Location Temp. Windchill Dew Point Humidity Wind Precip. Elev Updated Type
                   

Watches & Warnings

There are currently no watches in effect.